sensor_id;sensor_type;location;lat;lon;timestamp;pressure;altitude;pressure_sealevel;temperature;humidity
75006;BME280;63553;51.814;4.600;2024-02-21T00:00:04;102327.59;;;16.69;65.24
75006;BME280;63553;51.814;4.600;2024-02-21T00:02:30;102325.97;;;16.68;65.45
75006;BME280;63553;51.814;4.600;2024-02-21T00:04:55;102324.31;;;16.67;65.44
75006;BME280;63553;51.814;4.600;2024-02-21T00:07:21;102319.03;;;16.65;65.54
75006;BME280;63553;51.814;4.600;2024-02-21T00:09:46;102316.22;;;16.65;65.51
75006;BME280;63553;51.814;4.600;2024-02-21T00:12:11;102310.59;;;16.65;65.62
75006;BME280;63553;51.814;4.600;2024-02-21T00:14:39;102306.97;;;16.65;65.59
75006;BME280;63553;51.814;4.600;2024-02-21T00:17:04;102300.53;;;16.64;65.38
75006;BME280;63553;51.814;4.600;2024-02-21T00:19:29;102304.47;;;16.63;65.53
75006;BME280;63553;51.814;4.600;2024-02-21T00:21:55;102291.59;;;16.62;65.71
75006;BME280;63553;51.814;4.600;2024-02-21T00:24:20;102295.56;;;16.61;65.72
75006;BME280;63553;51.814;4.600;2024-02-21T00:26:45;102299.50;;;16.60;65.54
75006;BME280;63553;51.814;4.600;2024-02-21T00:29:11;102297.03;;;16.59;65.56
75006;BME280;63553;51.814;4.600;2024-02-21T00:31:36;102284.16;;;16.58;65.70
75006;BME280;63553;51.814;4.600;2024-02-21T00:34:01;102290.91;;;16.57;65.81
75006;BME280;63553;51.814;4.600;2024-02-21T00:36:27;102283.13;;;16.54;65.81
75006;BME280;63553;51.814;4.600;2024-02-21T00:38:53;102288.09;;;16.57;65.91
75006;BME280;63553;51.814;4.600;2024-02-21T00:41:18;102295.19;;;16.54;65.71
75006;BME280;63553;51.814;4.600;2024-02-21T00:43:43;102303.94;;;16.53;65.85
75006;BME280;63553;51.814;4.600;2024-02-21T00:46:08;102294.69;;;16.52;65.80
75006;BME280;63553;51.814;4.600;2024-02-21T00:48:34;102300.63;;;16.51;65.88
75006;BME280;63553;51.814;4.600;2024-02-21T00:51:00;102292.22;;;16.51;65.80
75006;BME280;63553;51.814;4.600;2024-02-21T00:53:25;102310.19;;;16.50;65.84
75006;BME280;63553;51.814;4.600;2024-02-21T00:55:51;102294.50;;;16.49;65.82
75006;BME280;63553;51.814;4.600;2024-02-21T00:58:16;102294.84;;;16.47;65.76
75006;BME280;63553;51.814;4.600;2024-02-21T01:00:42;102287.91;;;16.45;65.99
75006;BME280;63553;51.814;4.600;2024-02-21T01:03:07;102276.66;;;16.45;65.72
75006;BME280;63553;51.814;4.600;2024-02-21T01:05:32;102271.84;;;16.45;65.90
75006;BME280;63553;51.814;4.600;2024-02-21T01:07:58;102262.63;;;16.45;65.96
75006;BME280;63553;51.814;4.600;2024-02-21T01:10:23;102263.78;;;16.44;66.14
75006;BME280;63553;51.814;4.600;2024-02-21T01:12:48;102265.44;;;16.45;66.06
75006;BME280;63553;51.814;4.600;2024-02-21T01:15:14;102271.38;;;16.43;66.05
75006;BME280;63553;51.814;4.600;2024-02-21T01:17:39;102263.78;;;16.44;66.35
75006;BME280;63553;51.814;4.600;2024-02-21T01:20:06;102270.22;;;16.44;66.18
75006;BME280;63553;51.814;4.600;2024-02-21T01:22:32;102272.19;;;16.44;66.17
75006;BME280;63553;51.814;4.600;2024-02-21T01:24:57;102262.47;;;16.41;66.25
75006;BME280;63553;51.814;4.600;2024-02-21T01:27:22;102260.97;;;16.44;66.25
75006;BME280;63553;51.814;4.600;2024-02-21T01:29:47;102264.63;;;16.44;66.02
75006;BME280;63553;51.814;4.600;2024-02-21T01:32:15;102259.31;;;16.43;66.29
75006;BME280;63553;51.814;4.600;2024-02-21T01:34:40;102258.81;;;16.41;65.80
75006;BME280;63553;51.814;4.600;2024-02-21T01:37:05;102254.53;;;16.43;66.09
75006;BME280;63553;51.814;4.600;2024-02-21T01:39:33;102244.78;;;16.41;66.23
75006;BME280;63553;51.814;4.600;2024-02-21T01:41:58;102244.78;;;16.41;66.05
75006;BME280;63553;51.814;4.600;2024-02-21T01:44:24;102243.13;;;16.40;66.24
75006;BME280;63553;51.814;4.600;2024-02-21T01:46:50;102248.72;;;16.40;66.25
75006;BME280;63553;51.814;4.600;2024-02-21T01:49:16;102244.28;;;16.39;66.24
75006;BME280;63553;51.814;4.600;2024-02-21T01:51:42;102237.50;;;16.40;66.31
75006;BME280;63553;51.814;4.600;2024-02-21T01:54:08;102235.03;;;16.38;66.44
75006;BME280;63553;51.814;4.600;2024-02-21T01:56:33;102225.78;;;16.38;66.51
75006;BME280;63553;51.814;4.600;2024-02-21T01:58:59;102225.31;;;16.36;66.55
75006;BME280;63553;51.814;4.600;2024-02-21T02:01:25;102218.19;;;16.38;66.35
75006;BME280;63553;51.814;4.600;2024-02-21T02:03:50;102216.22;;;16.39;66.36
75006;BME280;63553;51.814;4.600;2024-02-21T02:06:16;102222.97;;;16.38;66.56
75006;BME280;63553;51.814;4.600;2024-02-21T02:08:41;102222.97;;;16.38;66.53
75006;BME280;63553;51.814;4.600;2024-02-21T02:11:07;102215.69;;;16.37;66.57
75006;BME280;63553;51.814;4.600;2024-02-21T02:13:32;102206.44;;;16.36;66.67
75006;BME280;63553;51.814;4.600;2024-02-21T02:15:58;102212.06;;;16.36;66.52
75006;BME280;63553;51.814;4.600;2024-02-21T02:18:23;102213.25;;;16.35;66.33
75006;BME280;63553;51.814;4.600;2024-02-21T02:20:49;102212.41;;;16.35;66.53
75006;BME280;63553;51.814;4.600;2024-02-21T02:23:43;102205.13;;;16.34;66.55
75006;BME280;63553;51.814;4.600;2024-02-21T02:26:09;102210.75;;;16.34;66.84
75006;BME280;63553;51.814;4.600;2024-02-21T02:28:34;102208.47;;;16.36;66.59
75006;BME280;63553;51.814;4.600;2024-02-21T02:30:59;102208.28;;;16.32;66.63
75006;BME280;63553;51.814;4.600;2024-02-21T02:33:24;102207.09;;;16.33;66.73
75006;BME280;63553;51.814;4.600;2024-02-21T02:35:50;102205.13;;;16.34;66.63
75006;BME280;63553;51.814;4.600;2024-02-21T02:38:15;102206.31;;;16.33;67.04
75006;BME280;63553;51.814;4.600;2024-02-21T02:40:41;102212.41;;;16.35;66.83
75006;BME280;63553;51.814;4.600;2024-02-21T02:43:06;102199.50;;;16.34;66.86
75006;BME280;63553;51.814;4.600;2024-02-21T02:45:32;102195.38;;;16.31;66.80
75006;BME280;63553;51.814;4.600;2024-02-21T02:47:57;102188.94;;;16.31;67.04
75006;BME280;63553;51.814;4.600;2024-02-21T02:50:23;102184.16;;;16.31;67.08
75006;BME280;63553;51.814;4.600;2024-02-21T02:52:49;102177.72;;;16.31;66.76
75006;BME280;63553;51.814;4.600;2024-02-21T02:55:15;102169.63;;;16.29;67.23
75006;BME280;63553;51.814;4.600;2024-02-21T02:57:40;102164.03;;;16.29;67.28
75006;BME280;63553;51.814;4.600;2024-02-21T03:00:10;102160.03;;;16.30;66.84
75006;BME280;63553;51.814;4.600;2024-02-21T03:02:37;102156.44;;;16.30;66.99
75006;BME280;63553;51.814;4.600;2024-02-21T03:05:11;102143.06;;;16.27;67.00
75006;BME280;63553;51.814;4.600;2024-02-21T03:07:37;102137.44;;;16.27;67.04
75006;BME280;63553;51.814;4.600;2024-02-21T03:10:03;102151.13;;;16.28;66.86
75006;BME280;63553;51.814;4.600;2024-02-21T03:12:28;102140.75;;;16.29;66.92
75006;BME280;63553;51.814;4.600;2024-02-21T03:14:54;102130.66;;;16.28;67.13
75006;BME280;63553;51.814;4.600;2024-02-21T03:17:19;102133.47;;;16.28;66.91
75006;BME280;63553;51.814;4.600;2024-02-21T03:19:45;102126.53;;;16.25;66.89
75006;BME280;63553;51.814;4.600;2024-02-21T03:22:10;102124.91;;;16.24;67.02
75006;BME280;63553;51.814;4.600;2024-02-21T03:24:35;102124.56;;;16.26;66.96
75006;BME280;63553;51.814;4.600;2024-02-21T03:27:01;102125.03;;;16.28;66.91
75006;BME280;63553;51.814;4.600;2024-02-21T03:29:26;102126.53;;;16.25;66.99
75006;BME280;63553;51.814;4.600;2024-02-21T03:31:51;102117.28;;;16.25;67.10
75006;BME280;63553;51.814;4.600;2024-02-21T03:34:17;102114.81;;;16.23;67.22
75006;BME280;63553;51.814;4.600;2024-02-21T03:36:42;102120.09;;;16.25;67.22
75006;BME280;63553;51.814;4.600;2024-02-21T03:39:07;102114.00;;;16.23;66.97
75006;BME280;63553;51.814;4.600;2024-02-21T03:41:34;102112.00;;;16.23;67.05
75006;BME280;63553;51.814;4.600;2024-02-21T03:44:00;102112.34;;;16.22;66.99
75006;BME280;63553;51.814;4.600;2024-02-21T03:46:25;102106.72;;;16.22;67.02
75006;BME280;63553;51.814;4.600;2024-02-21T03:48:50;102103.91;;;16.22;67.09
75006;BME280;63553;51.814;4.600;2024-02-21T03:51:15;102105.09;;;16.21;67.09
75006;BME280;63553;51.814;4.600;2024-02-21T03:53:41;102104.25;;;16.20;67.01
75006;BME280;63553;51.814;4.600;2024-02-21T03:56:06;102103.09;;;16.21;67.08
75006;BME280;63553;51.814;4.600;2024-02-21T03:58:32;102098.66;;;16.20;67.20
75006;BME280;63553;51.814;4.600;2024-02-21T04:01:00;102100.63;;;16.20;67.29
75006;BME280;63553;51.814;4.600;2024-02-21T04:03:26;102094.19;;;16.19;67.13
75006;BME280;63553;51.814;4.600;2024-02-21T04:05:52;102096.97;;;16.19;67.13
75006;BME280;63553;51.814;4.600;2024-02-21T04:08:17;102100.63;;;16.20;67.11
75006;BME280;63553;51.814;4.600;2024-02-21T04:10:42;102087.72;;;16.19;67.13
75006;BME280;63553;51.814;4.600;2024-02-21T04:13:08;102094.53;;;16.18;67.08
75006;BME280;63553;51.814;4.600;2024-02-21T04:15:34;102102.41;;;16.16;67.32
75006;BME280;63553;51.814;4.600;2024-02-21T04:18:00;102109.69;;;16.17;67.06
75006;BME280;63553;51.814;4.600;2024-02-21T04:20:25;102102.41;;;16.16;67.27
75006;BME280;63553;51.814;4.600;2024-02-21T04:22:50;102102.41;;;16.16;66.97
75006;BME280;63553;51.814;4.600;2024-02-21T04:25:16;102098.28;;;16.13;67.12
75006;BME280;63553;51.814;4.600;2024-02-21T04:27:41;102100.28;;;16.12;67.15
75006;BME280;63553;51.814;4.600;2024-02-21T04:30:07;102093.88;;;16.12;67.10
75006;BME280;63553;51.814;4.600;2024-02-21T04:32:32;102089.88;;;16.13;67.22
75006;BME280;63553;51.814;4.600;2024-02-21T04:34:58;102083.97;;;16.15;67.63
75006;BME280;63553;51.814;4.600;2024-02-21T04:37:24;102069.91;;;16.15;67.19
75006;BME280;63553;51.814;4.600;2024-02-21T04:39:49;102067.13;;;16.15;67.36
75006;BME280;63553;51.814;4.600;2024-02-21T04:42:15;102068.25;;;16.13;67.37
75006;BME280;63553;51.814;4.600;2024-02-21T04:44:40;102063.97;;;16.16;67.18
75006;BME280;63553;51.814;4.600;2024-02-21T04:47:06;102053.09;;;16.15;67.15
75006;BME280;63553;51.814;4.600;2024-02-21T04:49:32;102052.25;;;16.14;67.27
75006;BME280;63553;51.814;4.600;2024-02-21T04:51:57;102051.44;;;16.13;67.40
75006;BME280;63553;51.814;4.600;2024-02-21T04:54:22;102046.97;;;16.12;67.34
75006;BME280;63553;51.814;4.600;2024-02-21T04:56:48;102046.16;;;16.12;67.09
75006;BME280;63553;51.814;4.600;2024-02-21T04:59:13;102043.34;;;16.12;67.29
75006;BME280;63553;51.814;4.600;2024-02-21T05:01:38;102043.34;;;16.12;66.90
75006;BME280;63553;51.814;4.600;2024-02-21T05:04:04;102029.31;;;16.12;67.20
75006;BME280;63553;51.814;4.600;2024-02-21T05:06:29;102022.38;;;16.18;68.00
75006;BME280;63553;51.814;4.600;2024-02-21T05:08:55;102026.00;;;16.27;68.10
75006;BME280;63553;51.814;4.600;2024-02-21T05:11:21;102013.13;;;16.35;68.50
75006;BME280;63553;51.814;4.600;2024-02-21T05:13:46;102015.44;;;16.33;68.28
75006;BME280;63553;51.814;4.600;2024-02-21T05:16:12;101999.75;;;16.32;67.34
75006;BME280;63553;51.814;4.600;2024-02-21T05:18:37;102006.50;;;16.31;66.83
75006;BME280;63553;51.814;4.600;2024-02-21T05:21:03;102008.34;;;16.27;67.09
75006;BME280;63553;51.814;4.600;2024-02-21T05:23:28;102000.25;;;16.25;66.73
75006;BME280;63553;51.814;4.600;2024-02-21T05:25:53;101996.13;;;16.23;66.81
75006;BME280;63553;51.814;4.600;2024-02-21T05:28:19;101993.66;;;16.21;67.05
75006;BME280;63553;51.814;4.600;2024-02-21T05:30:44;101978.47;;;16.13;67.04
75006;BME280;63553;51.814;4.600;2024-02-21T05:33:09;101977.16;;;16.20;67.29
75006;BME280;63553;51.814;4.600;2024-02-21T05:35:35;101979.13;;;16.19;67.25
75006;BME280;63553;51.814;4.600;2024-02-21T05:38:01;101977.50;;;16.18;67.31
75006;BME280;63553;51.814;4.600;2024-02-21T05:40:29;101983.91;;;16.19;67.41
75006;BME280;63553;51.814;4.600;2024-02-21T05:42:54;101967.59;;;16.12;67.51
75006;BME280;63553;51.814;4.600;2024-02-21T05:45:20;101971.88;;;16.18;67.60
75006;BME280;63553;51.814;4.600;2024-02-21T05:47:45;101964.59;;;16.17;67.46
75006;BME280;63553;51.814;4.600;2024-02-21T05:50:10;101963.78;;;16.17;67.81
75006;BME280;63553;51.814;4.600;2024-02-21T05:52:36;101960.16;;;16.16;67.62
75006;BME280;63553;51.814;4.600;2024-02-21T05:55:01;101952.06;;;16.15;67.92
75006;BME280;63553;51.814;4.600;2024-02-21T05:57:27;101942.00;;;16.13;67.85
75006;BME280;63553;51.814;4.600;2024-02-21T05:59:52;101938.34;;;16.13;67.91
75006;BME280;63553;51.814;4.600;2024-02-21T06:02:17;101936.38;;;16.13;67.89
75006;BME280;63553;51.814;4.600;2024-02-21T06:04:42;101934.25;;;16.10;67.76
75006;BME280;63553;51.814;4.600;2024-02-21T06:07:09;101930.28;;;16.11;67.89
75006;BME280;63553;51.814;4.600;2024-02-21T06:09:34;101937.06;;;16.10;67.97
75006;BME280;63553;51.814;4.600;2024-02-21T06:11:59;101931.44;;;16.10;68.04
75006;BME280;63553;51.814;4.600;2024-02-21T06:14:25;101938.19;;;16.09;67.99
75006;BME280;63553;51.814;4.600;2024-02-21T06:16:50;101949.41;;;16.09;68.09
75006;BME280;63553;51.814;4.600;2024-02-21T06:19:15;101943.81;;;16.09;68.09
75006;BME280;63553;51.814;4.600;2024-02-21T06:21:41;101944.16;;;16.08;68.08
75006;BME280;63553;51.814;4.600;2024-02-21T06:24:06;101948.94;;;16.07;68.11
75006;BME280;63553;51.814;4.600;2024-02-21T06:26:31;101954.06;;;16.05;68.18
75006;BME280;63553;51.814;4.600;2024-02-21T06:28:57;101951.25;;;16.05;68.18
75006;BME280;63553;51.814;4.600;2024-02-21T06:31:24;101949.13;;;16.02;68.18
75006;BME280;63553;51.814;4.600;2024-02-21T06:33:50;101958.00;;;16.04;68.17
75006;BME280;63553;51.814;4.600;2024-02-21T06:36:15;101949.13;;;16.02;68.29
75006;BME280;63553;51.814;4.600;2024-02-21T06:38:40;101938.22;;;16.01;68.25
75006;BME280;63553;51.814;4.600;2024-02-21T06:41:06;101940.22;;;16.00;68.19
75006;BME280;63553;51.814;4.600;2024-02-21T06:43:31;101931.81;;;16.00;68.09
75006;BME280;63553;51.814;4.600;2024-02-21T06:45:56;101923.69;;;15.99;68.14
75006;BME280;63553;51.814;4.600;2024-02-21T06:48:22;101917.25;;;15.98;68.02
75006;BME280;63553;51.814;4.600;2024-02-21T06:50:47;101922.88;;;15.98;67.96
75006;BME280;63553;51.814;4.600;2024-02-21T06:53:12;101922.09;;;13.04;66.30
75006;BME280;63553;51.814;4.600;2024-02-21T06:55:38;101924.84;;;11.01;76.41
75006;BME280;63553;51.814;4.600;2024-02-21T06:58:03;101916.94;;;10.42;79.77
75006;BME280;63553;51.814;4.600;2024-02-21T07:00:29;101934.09;;;10.49;82.86
75006;BME280;63553;51.814;4.600;2024-02-21T07:02:55;101934.00;;;10.31;84.52
75006;BME280;63553;51.814;4.600;2024-02-21T07:05:20;101928.13;;;10.61;92.60
75006;BME280;63553;51.814;4.600;2024-02-21T07:07:45;101924.28;;;10.33;89.39
75006;BME280;63553;51.814;4.600;2024-02-21T07:10:11;101920.81;;;10.18;90.02
75006;BME280;63553;51.814;4.600;2024-02-21T07:12:36;101910.50;;;10.47;90.97
75006;BME280;63553;51.814;4.600;2024-02-21T07:15:04;101918.06;;;10.41;88.09
75006;BME280;63553;51.814;4.600;2024-02-21T07:17:30;101907.16;;;11.11;89.26
75006;BME280;63553;51.814;4.600;2024-02-21T07:19:55;101904.53;;;11.38;87.56
75006;BME280;63553;51.814;4.600;2024-02-21T07:22:22;101896.31;;;10.91;87.36
75006;BME280;63553;51.814;4.600;2024-02-21T07:24:47;101893.09;;;11.21;85.76
75006;BME280;63553;51.814;4.600;2024-02-21T07:27:15;101893.16;;;10.97;82.80
75006;BME280;63553;51.814;4.600;2024-02-21T07:29:40;101881.19;;;11.53;86.05
75006;BME280;63553;51.814;4.600;2024-02-21T07:32:06;101883.94;;;10.78;80.97
75006;BME280;63553;51.814;4.600;2024-02-21T07:34:31;101873.56;;;11.77;88.42
75006;BME280;63553;51.814;4.600;2024-02-21T07:36:57;101868.66;;;10.99;81.78
75006;BME280;63553;51.814;4.600;2024-02-21T07:39:22;101871.16;;;10.58;82.40
75006;BME280;63553;51.814;4.600;2024-02-21T07:41:47;101856.16;;;11.15;84.06
75006;BME280;63553;51.814;4.600;2024-02-21T07:44:14;101859.56;;;11.31;86.21
75006;BME280;63553;51.814;4.600;2024-02-21T07:46:40;101870.84;;;10.84;82.55
75006;BME280;63553;51.814;4.600;2024-02-21T07:49:05;101864.34;;;10.22;83.95
75006;BME280;63553;51.814;4.600;2024-02-21T07:51:30;101859.47;;;10.09;84.60
75006;BME280;63553;51.814;4.600;2024-02-21T07:53:56;101851.88;;;10.43;87.69
75006;BME280;63553;51.814;4.600;2024-02-21T07:56:21;101844.28;;;11.10;86.51
75006;BME280;63553;51.814;4.600;2024-02-21T07:58:46;101840.56;;;10.35;81.85
75006;BME280;63553;51.814;4.600;2024-02-21T08:01:18;101827.19;;;10.79;86.67
75006;BME280;63553;51.814;4.600;2024-02-21T08:03:44;101833.16;;;10.49;84.14
75006;BME280;63553;51.814;4.600;2024-02-21T08:06:12;101826.28;;;10.65;84.32
75006;BME280;63553;51.814;4.600;2024-02-21T08:08:37;101828.16;;;10.51;84.35
75006;BME280;63553;51.814;4.600;2024-02-21T08:11:02;101823.72;;;10.50;84.49
75006;BME280;63553;51.814;4.600;2024-02-21T08:13:28;101824.91;;;10.20;82.71
75006;BME280;63553;51.814;4.600;2024-02-21T08:15:54;101825.84;;;10.34;82.74
75006;BME280;63553;51.814;4.600;2024-02-21T08:18:19;101819.69;;;10.80;84.42
75006;BME280;63553;51.814;4.600;2024-02-21T08:20:44;101815.31;;;10.74;81.17
75006;BME280;63553;51.814;4.600;2024-02-21T08:23:09;101816.09;;;10.37;82.49
75006;BME280;63553;51.814;4.600;2024-02-21T08:25:35;101802.13;;;10.42;84.99
75006;BME280;63553;51.814;4.600;2024-02-21T08:28:00;101804.66;;;10.81;84.65
75006;BME280;63553;51.814;4.600;2024-02-21T08:30:25;101800.66;;;10.87;81.70
75006;BME280;63553;51.814;4.600;2024-02-21T08:32:51;101800.34;;;10.51;81.95
75006;BME280;63553;51.814;4.600;2024-02-21T08:35:16;101795.19;;;10.39;81.94
75006;BME280;63553;51.814;4.600;2024-02-21T08:37:43;101794.38;;;9.91;82.55
75006;BME280;63553;51.814;4.600;2024-02-21T08:40:09;101796.75;;;10.03;82.23
75006;BME280;63553;51.814;4.600;2024-02-21T08:42:36;101788.00;;;10.38;82.15
75006;BME280;63553;51.814;4.600;2024-02-21T08:45:02;101787.06;;;10.00;82.74
75006;BME280;63553;51.814;4.600;2024-02-21T08:47:28;101776.53;;;9.97;82.03
75006;BME280;63553;51.814;4.600;2024-02-21T08:49:53;101768.41;;;10.25;82.47
75006;BME280;63553;51.814;4.600;2024-02-21T08:52:18;101770.56;;;10.51;81.64
75006;BME280;63553;51.814;4.600;2024-02-21T08:54:44;101768.22;;;10.40;80.38
75006;BME280;63553;51.814;4.600;2024-02-21T08:57:09;101775.41;;;10.65;81.89
75006;BME280;63553;51.814;4.600;2024-02-21T08:59:34;101769.84;;;10.22;80.99
75006;BME280;63553;51.814;4.600;2024-02-21T09:02:00;101764.59;;;10.21;81.44
75006;BME280;63553;51.814;4.600;2024-02-21T09:04:25;101752.22;;;10.08;82.19
75006;BME280;63553;51.814;4.600;2024-02-21T09:06:50;101754.03;;;10.97;81.88
75006;BME280;63553;51.814;4.600;2024-02-21T09:09:17;101743.16;;;10.82;82.56
75006;BME280;63553;51.814;4.600;2024-02-21T09:11:43;101739.94;;;10.56;80.22
75006;BME280;63553;51.814;4.600;2024-02-21T09:14:08;101737.22;;;10.33;81.54
75006;BME280;63553;51.814;4.600;2024-02-21T09:16:33;101718.53;;;10.57;81.03
75006;BME280;63553;51.814;4.600;2024-02-21T09:18:59;101713.84;;;10.52;81.18
75006;BME280;63553;51.814;4.600;2024-02-21T09:21:25;101708.88;;;10.31;80.87
75006;BME280;63553;51.814;4.600;2024-02-21T09:23:50;101707.22;;;10.86;81.26
75006;BME280;63553;51.814;4.600;2024-02-21T09:26:16;101695.63;;;10.79;79.81
75006;BME280;63553;51.814;4.600;2024-02-21T09:28:42;101693.16;;;10.77;78.91
75006;BME280;63553;51.814;4.600;2024-02-21T09:31:08;101683.59;;;10.83;79.20
75006;BME280;63553;51.814;4.600;2024-02-21T09:33:33;101681.03;;;10.87;80.87
75006;BME280;63553;51.814;4.600;2024-02-21T09:35:59;101668.06;;;10.64;79.86
75006;BME280;63553;51.814;4.600;2024-02-21T09:38:24;101659.66;;;10.69;79.28
75006;BME280;63553;51.814;4.600;2024-02-21T09:40:59;101655.72;;;11.02;79.04
75006;BME280;63553;51.814;4.600;2024-02-21T09:43:26;101645.03;;;10.26;79.98
75006;BME280;63553;51.814;4.600;2024-02-21T09:45:54;101642.00;;;10.22;80.11
75006;BME280;63553;51.814;4.600;2024-02-21T09:48:41;101629.47;;;10.25;79.60
75006;BME280;63553;51.814;4.600;2024-02-21T09:51:09;101633.91;;;10.26;80.57
75006;BME280;63553;51.814;4.600;2024-02-21T09:53:37;101632.03;;;10.72;80.45
75006;BME280;63553;51.814;4.600;2024-02-21T09:56:04;101629.78;;;10.23;80.37
75006;BME280;63553;51.814;4.600;2024-02-21T09:58:30;101629.22;;;10.58;79.85
75006;BME280;63553;51.814;4.600;2024-02-21T10:00:55;101617.63;;;10.51;80.59
75006;BME280;63553;51.814;4.600;2024-02-21T10:03:23;101615.28;;;10.77;79.17
75006;BME280;63553;51.814;4.600;2024-02-21T10:05:48;101602.50;;;10.90;79.50
75006;BME280;63553;51.814;4.600;2024-02-21T10:08:17;101594.19;;;10.57;78.88
75006;BME280;63553;51.814;4.600;2024-02-21T10:10:43;101580.59;;;10.24;80.06
75006;BME280;63553;51.814;4.600;2024-02-21T10:13:10;101564.28;;;10.36;80.13
75006;BME280;63553;51.814;4.600;2024-02-21T10:15:35;101544.88;;;10.31;80.40
75006;BME280;63553;51.814;4.600;2024-02-21T10:18:01;101522.59;;;10.17;80.64
75006;BME280;63553;51.814;4.600;2024-02-21T10:20:28;101514.03;;;9.95;81.41
75006;BME280;63553;51.814;4.600;2024-02-21T10:23:04;101519.59;;;10.46;81.04
75006;BME280;63553;51.814;4.600;2024-02-21T10:25:36;101567.91;;;11.64;78.00
75006;BME280;63553;51.814;4.600;2024-02-21T10:28:07;101565.88;;;11.01;78.32
75006;BME280;63553;51.814;4.600;2024-02-21T10:30:32;101568.16;;;12.03;79.11
75006;BME280;63553;51.814;4.600;2024-02-21T10:32:58;101563.56;;;10.90;77.23
75006;BME280;63553;51.814;4.600;2024-02-21T10:35:31;101557.41;;;11.75;78.49
75006;BME280;63553;51.814;4.600;2024-02-21T10:37:58;101564.84;;;11.52;75.91
75006;BME280;63553;51.814;4.600;2024-02-21T10:40:28;101562.88;;;11.52;78.88
75006;BME280;63553;51.814;4.600;2024-02-21T10:42:59;101568.25;;;11.49;77.88
75006;BME280;63553;51.814;4.600;2024-02-21T10:45:34;101565.88;;;11.42;77.48
75006;BME280;63553;51.814;4.600;2024-02-21T10:48:14;101564.19;;;10.87;77.26
75006;BME280;63553;51.814;4.600;2024-02-21T10:51:02;101537.72;;;11.03;76.70
75006;BME280;63553;51.814;4.600;2024-02-21T10:56:20;101531.72;;;10.82;77.98
75006;BME280;63553;51.814;4.600;2024-02-21T10:58:48;101526.16;;;10.82;77.72
75006;BME280;63553;51.814;4.600;2024-02-21T11:01:14;101531.75;;;11.23;77.77
75006;BME280;63553;51.814;4.600;2024-02-21T11:03:42;101537.47;;;11.67;78.06
75006;BME280;63553;51.814;4.600;2024-02-21T11:06:10;101522.75;;;11.53;76.50
75006;BME280;63553;51.814;4.600;2024-02-21T11:08:36;101511.44;;;11.23;77.68
75006;BME280;63553;51.814;4.600;2024-02-21T11:11:04;101485.88;;;11.21;77.39
75006;BME280;63553;51.814;4.600;2024-02-21T11:13:31;101493.81;;;11.27;76.04
75006;BME280;63553;51.814;4.600;2024-02-21T11:16:10;101497.69;;;11.53;75.21
75006;BME280;63553;51.814;4.600;2024-02-21T11:18:37;101480.56;;;11.46;75.29
75006;BME280;63553;51.814;4.600;2024-02-21T11:21:03;101465.97;;;11.27;76.42
75006;BME280;63553;51.814;4.600;2024-02-21T11:23:31;101439.44;;;10.80;76.27
75006;BME280;63553;51.814;4.600;2024-02-21T11:26:09;101451.81;;;11.37;76.63
75006;BME280;63553;51.814;4.600;2024-02-21T11:28:35;101443.53;;;11.10;75.49
75006;BME280;63553;51.814;4.600;2024-02-21T11:31:15;101448.88;;;10.93;75.58
75006;BME280;63553;51.814;4.600;2024-02-21T11:33:41;101447.22;;;11.19;74.89
75006;BME280;63553;51.814;4.600;2024-02-21T11:36:08;101423.13;;;11.50;75.10
75006;BME280;63553;51.814;4.600;2024-02-21T11:38:34;101421.19;;;11.37;74.18
75006;BME280;63553;51.814;4.600;2024-02-21T11:40:59;101416.78;;;11.72;74.56
75006;BME280;63553;51.814;4.600;2024-02-21T11:43:24;101408.97;;;11.60;74.87
75006;BME280;63553;51.814;4.600;2024-02-21T11:45:50;101402.59;;;11.82;73.17
75006;BME280;63553;51.814;4.600;2024-02-21T11:48:23;101398.69;;;11.47;74.03
75006;BME280;63553;51.814;4.600;2024-02-21T11:50:54;101401.47;;;11.11;74.83
75006;BME280;63553;51.814;4.600;2024-02-21T11:53:20;101387.16;;;11.40;74.09
75006;BME280;63553;51.814;4.600;2024-02-21T11:55:46;101393.53;;;11.41;74.09
75006;BME280;63553;51.814;4.600;2024-02-21T11:58:11;101382.47;;;11.49;73.56
75006;BME280;63553;51.814;4.600;2024-02-21T12:00:37;101382.31;;;11.68;73.01
75006;BME280;63553;51.814;4.600;2024-02-21T12:03:04;101363.25;;;11.39;74.99
75006;BME280;63553;51.814;4.600;2024-02-21T12:05:30;101353.94;;;11.44;75.31
75006;BME280;63553;51.814;4.600;2024-02-21T12:07:55;101352.47;;;11.46;73.77
75006;BME280;63553;51.814;4.600;2024-02-21T12:10:23;101334.13;;;11.90;73.07
75006;BME280;63553;51.814;4.600;2024-02-21T12:12:48;101331.06;;;11.11;74.49
75006;BME280;63553;51.814;4.600;2024-02-21T12:15:18;101320.66;;;11.61;73.98
75006;BME280;63553;51.814;4.600;2024-02-21T12:17:44;101309.34;;;11.57;74.59
75006;BME280;63553;51.814;4.600;2024-02-21T12:20:09;101303.97;;;11.61;74.58
75006;BME280;63553;51.814;4.600;2024-02-21T12:22:39;101294.63;;;11.65;75.60
75006;BME280;63553;51.814;4.600;2024-02-21T12:25:25;101285.13;;;11.89;74.38
75006;BME280;63553;51.814;4.600;2024-02-21T12:27:53;101263.31;;;11.60;74.24
75006;BME280;63553;51.814;4.600;2024-02-21T12:30:19;101255.03;;;11.24;74.66
75006;BME280;63553;51.814;4.600;2024-02-21T12:32:45;101255.53;;;11.70;73.42
75006;BME280;63553;51.814;4.600;2024-02-21T12:35:10;101233.69;;;11.95;73.42
75006;BME280;63553;51.814;4.600;2024-02-21T12:37:36;101238.81;;;11.70;73.55
75006;BME280;63553;51.814;4.600;2024-02-21T12:40:04;101227.63;;;11.93;75.76
75006;BME280;63553;51.814;4.600;2024-02-21T12:42:32;101232.09;;;11.49;74.33
75006;BME280;63553;51.814;4.600;2024-02-21T12:44:58;101225.44;;;11.59;74.15
75006;BME280;63553;51.814;4.600;2024-02-21T12:47:23;101243.09;;;11.77;76.32